Time;durP1;ratioP1;P1;durP2;ratioP2;P2;SDS_P1;SDS_P2;PMS_P1;PMS_P2;Temp;Humidity;BMP_temperature;BMP_pressure;BME280_temperature;BME280_humidity;BME280_pressure;Samples;Min_cycle;Max_cycle;Signal;HPM_P1;HPM_P2
2021/04/13 00:00:35;;;;;;;7.07;6.00;;;1.40;78.20;;;;;;5193845;28;20065;-63
2021/04/13 00:03:10;;;;;;;7.47;6.45;;;1.50;78.60;;;;;;5180170;28;20132;-62
2021/04/13 00:05:44;;;;;;;7.60;6.10;;;1.40;78.80;;;;;;5182821;28;20124;-63
2021/04/13 00:08:21;;;;;;;8.25;6.63;;;1.40;78.40;;;;;;5188388;28;20096;-64
2021/04/13 00:10:59;;;;;;;8.13;6.65;;;1.40;78.40;;;;;;5187955;28;20038;-61
2021/04/13 00:13:32;;;;;;;7.53;6.00;;;1.40;79.60;;;;;;5188448;28;20050;-64
2021/04/13 00:16:14;;;;;;;8.25;6.68;;;1.30;80.00;;;;;;5185129;28;20103;-62
2021/04/13 00:18:47;;;;;;;8.07;6.35;;;1.40;79.10;;;;;;5187121;28;20037;-62
2021/04/13 00:21:31;;;;;;;8.85;6.72;;;1.30;79.50;;;;;;5187252;28;20088;-62
2021/04/13 00:24:08;;;;;;;8.90;6.57;;;1.20;79.70;;;;;;5188351;28;20057;-62
2021/04/13 00:26:47;;;;;;;8.80;7.15;;;1.10;80.60;;;;;;5190391;28;20172;-62
2021/04/13 00:29:22;;;;;;;9.35;7.93;;;1.10;81.90;;;;;;5190007;28;20045;-62
2021/04/13 00:31:59;;;;;;;10.43;7.90;;;1.10;80.90;;;;;;5186907;28;20038;-61
2021/04/13 00:34:45;;;;;;;10.20;7.88;;;1.10;80.90;;;;;;5190804;28;20045;-62
2021/04/13 00:37:29;;;;;;;9.82;7.47;;;1.10;81.10;;;;;;5188404;28;20050;-61
2021/04/13 00:40:18;;;;;;;9.48;6.97;;;1.10;80.60;;;;;;5188869;28;20077;-62
2021/04/13 00:42:53;;;;;;;8.98;7.07;;;1.10;80.00;;;;;;5197768;28;20072;-62
2021/04/13 00:45:30;;;;;;;9.07;7.13;;;1.20;79.70;;;;;;5186702;28;20041;-61
2021/04/13 00:48:02;;;;;;;9.77;7.75;;;1.20;79.30;;;;;;5187461;28;20531;-65
2021/04/13 00:50:42;;;;;;;10.63;8.20;;;1.30;79.30;;;;;;5198039;28;20033;-64
2021/04/13 00:53:18;;;;;;;10.18;8.23;;;1.20;80.50;;;;;;5189970;28;20046;-62
2021/04/13 00:55:56;;;;;;;11.05;9.13;;;1.20;80.80;;;;;;5190398;28;20037;-63
2021/04/13 00:58:36;;;;;;;10.68;7.95;;;1.10;80.90;;;;;;5193080;28;20049;-65
2021/04/13 01:01:27;;;;;;;10.48;8.05;;;1.10;80.80;;;;;;5190998;28;20528;-63
2021/04/13 01:04:12;;;;;;;10.57;8.55;;;1.10;81.00;;;;;;5186221;28;20147;-62
2021/04/13 01:06:44;;;;;;;9.95;8.23;;;1.10;80.60;;;;;;5189216;28;20395;-62
2021/04/13 01:09:24;;;;;;;11.73;8.25;;;1.10;80.90;;;;;;5189021;28;20551;-62
2021/04/13 01:12:04;;;;;;;9.07;7.35;;;1.10;79.90;;;;;;5192068;28;20491;-63
2021/04/13 01:14:35;;;;;;;10.03;8.07;;;1.10;79.70;;;;;;5191226;28;20091;-61
2021/04/13 01:17:10;;;;;;;9.80;8.20;;;1.10;79.90;;;;;;5189137;28;20575;-62
2021/04/13 01:19:54;;;;;;;10.32;8.27;;;1.10;80.30;;;;;;5192107;28;20531;-62
2021/04/13 01:22:33;;;;;;;9.93;7.50;;;1.10;80.70;;;;;;5187244;28;20057;-62
2021/04/13 01:25:09;;;;;;;9.33;7.07;;;1.20;80.30;;;;;;5186713;28;20128;-63
2021/04/13 01:27:53;;;;;;;8.52;7.07;;;1.30;79.70;;;;;;5189474;28;20871;-62
2021/04/13 01:30:53;;;;;;;9.30;7.35;;;1.40;78.80;;;;;;5190208;28;20065;-62
2021/04/13 01:33:31;;;;;;;9.20;7.28;;;1.40;78.80;;;;;;5171637;28;20057;-63
2021/04/13 01:36:29;;;;;;;8.35;6.93;;;1.40;78.50;;;;;;5190046;28;20041;-65
2021/04/13 01:39:07;;;;;;;8.68;6.85;;;1.50;78.60;;;;;;5186462;28;20061;-62
2021/04/13 01:41:58;;;;;;;8.13;6.55;;;1.50;78.40;;;;;;5187821;28;20108;-62
2021/04/13 01:44:35;;;;;;;8.32;6.85;;;1.50;78.40;;;;;;5187932;28;20634;-63
2021/04/13 01:47:10;;;;;;;7.75;6.60;;;1.50;78.40;;;;;;5187151;28;20111;-62
2021/04/13 01:49:48;;;;;;;9.27;6.60;;;1.50;78.00;;;;;;5189806;28;20818;-62
2021/04/13 01:52:25;;;;;;;9.30;6.93;;;1.50;77.60;;;;;;5165973;28;20054;-64
2021/04/13 01:55:14;;;;;;;9.43;7.25;;;1.50;77.60;;;;;;5166323;28;20127;-62
2021/04/13 01:58:07;;;;;;;9.32;6.93;;;1.60;77.10;;;;;;5189820;28;20045;-62
2021/04/13 02:00:50;;;;;;;8.60;7.13;;;1.50;76.90;;;;;;5190347;28;20030;-62
2021/04/13 02:03:33;;;;;;;9.00;7.00;;;1.50;77.60;;;;;;5188245;28;20049;-62
2021/04/13 02:06:32;;;;;;;10.05;7.53;;;1.50;77.20;;;;;;5189452;28;20046;-63
2021/04/13 02:12:15;;;;;;;9.18;7.20;;;1.40;77.40;;;;;;5191381;28;20057;-65
2021/04/13 02:14:54;;;;;;;10.10;7.22;;;1.50;77.30;;;;;;5187758;28;20483;-65
2021/04/13 02:17:39;;;;;;;8.50;7.07;;;1.40;77.50;;;;;;5204915;28;20050;-62
2021/04/13 02:20:14;;;;;;;8.27;6.88;;;1.40;77.20;;;;;;5187704;28;20606;-62
2021/04/13 02:22:47;;;;;;;8.70;6.68;;;1.50;77.20;;;;;;5187128;28;20046;-62
2021/04/13 02:25:25;;;;;;;8.10;6.55;;;1.50;77.10;;;;;;5190730;28;20710;-64
2021/04/13 02:27:59;;;;;;;9.02;7.45;;;1.50;77.00;;;;;;5188977;28;20092;-62
2021/04/13 02:30:37;;;;;;;9.05;6.03;;;1.50;77.00;;;;;;5188180;28;20547;-62
2021/04/13 02:33:23;;;;;;;9.38;7.22;;;1.50;76.70;;;;;;5187831;28;20142;-62
2021/04/13 02:35:57;;;;;;;9.13;6.55;;;1.50;77.80;;;;;;5195442;28;20129;-62
2021/04/13 02:38:31;;;;;;;7.88;6.45;;;1.50;77.20;;;;;;5186850;28;20551;-62
2021/04/13 02:41:18;;;;;;;9.10;6.60;;;1.50;77.30;;;;;;5185969;28;20500;-64
2021/04/13 02:43:53;;;;;;;8.23;6.72;;;1.40;76.90;;;;;;5189072;28;20726;-65
2021/04/13 02:46:28;;;;;;;8.15;6.57;;;1.40;77.00;;;;;;5189731;28;20111;-62
2021/04/13 02:49:05;;;;;;;8.75;6.80;;;1.40;77.30;;;;;;5192171;28;20057;-61
2021/04/13 02:51:40;;;;;;;8.13;6.50;;;1.40;76.80;;;;;;5189269;28;20049;-62
2021/04/13 02:54:17;;;;;;;8.45;7.05;;;1.30;77.00;;;;;;5186494;28;20041;-63
2021/04/13 02:56:51;;;;;;;8.15;6.50;;;1.30;77.50;;;;;;5189849;28;20052;-64
2021/04/13 02:59:31;;;;;;;9.75;6.88;;;1.20;77.20;;;;;;5189476;28;20108;-62
2021/04/13 03:02:23;;;;;;;8.32;7.10;;;1.10;78.30;;;;;;5186387;28;20073;-65
2021/04/13 03:04:55;;;;;;;8.35;6.68;;;1.00;78.30;;;;;;5188406;28;20065;-63
2021/04/13 03:07:29;;;;;;;8.68;7.07;;;1.10;78.00;;;;;;5187688;28;20573;-64
2021/04/13 03:10:06;;;;;;;8.93;7.25;;;1.20;77.70;;;;;;5186868;28;20135;-63
2021/04/13 03:12:46;;;;;;;9.07;7.35;;;1.20;77.90;;;;;;5188474;28;20088;-63
2021/04/13 03:15:24;;;;;;;8.52;7.25;;;1.20;78.20;;;;;;5181887;28;20128;-65
2021/04/13 03:17:59;;;;;;;8.27;6.72;;;1.20;77.90;;;;;;5185245;28;20054;-63
2021/04/13 03:20:40;;;;;;;9.38;7.20;;;1.20;77.70;;;;;;5181172;28;20151;-63
2021/04/13 03:23:13;;;;;;;9.85;6.90;;;1.20;77.60;;;;;;5187922;28;20050;-62
2021/04/13 03:25:55;;;;;;;8.80;7.05;;;1.20;77.20;;;;;;5183073;28;20104;-63
2021/04/13 03:28:32;;;;;;;9.52;7.63;;;1.20;77.50;;;;;;5187999;28;20056;-63
2021/04/13 03:31:04;;;;;;;9.23;7.68;;;1.20;77.20;;;;;;5187275;28;20049;-65
2021/04/13 03:33:37;;;;;;;9.10;7.00;;;1.20;77.50;;;;;;5181294;28;20053;-62
2021/04/13 03:36:23;;;;;;;10.57;7.82;;;1.20;77.10;;;;;;5186375;28;20589;-62
2021/04/13 03:38:59;;;;;;;10.38;8.23;;;1.20;77.70;;;;;;5190263;28;20049;-63
2021/04/13 03:41:32;;;;;;;11.43;8.27;;;1.20;77.20;;;;;;5185731;28;20092;-63
2021/04/13 03:44:04;;;;;;;9.23;7.28;;;1.20;77.20;;;;;;5184125;28;20049;-65
2021/04/13 03:46:38;;;;;;;9.15;7.63;;;1.20;77.50;;;;;;5182497;28;20112;-62
2021/04/13 03:49:18;;;;;;;10.82;8.35;;;1.20;77.90;;;;;;5189316;28;20076;-64
2021/04/13 03:52:00;;;;;;;11.98;8.15;;;1.20;77.70;;;;;;5188335;28;20939;-67
2021/04/13 03:54:36;;;;;;;10.00;7.72;;;1.10;77.70;;;;;;5188577;28;20499;-65
2021/04/13 03:57:08;;;;;;;9.68;8.02;;;1.20;77.50;;;;;;5193163;28;20099;-62
2021/04/13 03:59:43;;;;;;;10.18;8.13;;;1.20;78.10;;;;;;5191923;28;20585;-62
2021/04/13 04:02:15;;;;;;;8.73;7.05;;;1.20;77.70;;;;;;5192691;28;20053;-64
2021/04/13 04:04:47;;;;;;;11.38;7.57;;;1.10;78.00;;;;;;5195537;28;20588;-64
2021/04/13 04:07:29;;;;;;;9.45;8.20;;;1.10;77.50;;;;;;5189300;28;20061;-66
2021/04/13 04:10:00;;;;;;;11.02;7.57;;;1.20;77.40;;;;;;5191784;28;20500;-64
2021/04/13 04:12:32;;;;;;;9.85;8.65;;;1.20;77.40;;;;;;5189890;28;20119;-65
2021/04/13 04:15:03;;;;;;;9.80;8.30;;;1.20;77.40;;;;;;5192033;28;20057;-65
2021/04/13 04:17:38;;;;;;;9.85;7.82;;;1.10;77.60;;;;;;5191002;28;20099;-65
2021/04/13 04:20:11;;;;;;;11.38;8.57;;;1.10;77.60;;;;;;5207208;28;20100;-62
2021/04/13 04:22:51;;;;;;;12.32;9.70;;;1.10;77.50;;;;;;5189097;28;20132;-62
2021/04/13 04:25:28;;;;;;;;;;;1.10;77.40;;;;;;5189059;28;20054;-65
2021/04/13 04:28:13;;;;;;;10.05;8.23;;;1.10;77.00;;;;;;5191135;28;19925;-62
2021/04/13 04:30:45;;;;;;;9.77;8.30;;;1.10;77.90;;;;;;5189807;28;20090;-63
2021/04/13 04:33:37;;;;;;;11.70;8.15;;;1.00;76.90;;;;;;5190319;28;20050;-64
2021/04/13 04:36:28;;;;;;;9.27;7.70;;;1.00;76.80;;;;;;5190901;28;20053;-63
2021/04/13 04:39:21;;;;;;;10.68;8.13;;;1.00;76.70;;;;;;5191817;28;20585;-62
2021/04/13 04:41:57;;;;;;;11.35;7.68;;;1.00;76.70;;;;;;5188271;28;20117;-63
2021/04/13 04:44:30;;;;;;;10.43;8.52;;;0.90;77.00;;;;;;5189770;28;20045;-63
2021/04/13 04:47:01;;;;;;;10.70;8.63;;;0.80;78.40;;;;;;5188802;28;20060;-65
2021/04/13 04:49:37;;;;;;;10.27;8.05;;;0.70;78.10;;;;;;5189393;28;20068;-65
2021/04/13 04:52:09;;;;;;;10.10;8.52;;;0.70;78.00;;;;;;5190026;28;20570;-62
2021/04/13 04:54:40;;;;;;;9.60;7.80;;;0.70;78.00;;;;;;5191635;28;20064;-62
2021/04/13 04:57:12;;;;;;;11.43;8.35;;;0.70;77.70;;;;;;5189162;28;20049;-62
2021/04/13 04:59:46;;;;;;;10.88;7.97;;;0.70;77.50;;;;;;5187602;28;20125;-65
2021/04/13 05:02:55;;;;;;;10.85;8.05;;;0.80;77.70;;;;;;5187074;28;20605;-65
2021/04/13 05:05:27;;;;;;;12.45;8.32;;;0.70;77.60;;;;;;5189847;28;20439;-62
2021/04/13 05:07:58;;;;;;;10.57;8.02;;;0.60;78.40;;;;;;5188630;28;20121;-62
2021/04/13 05:10:29;;;;;;;10.63;8.00;;;0.70;78.40;;;;;;5188562;28;20045;-62
2021/04/13 05:13:01;;;;;;;11.93;8.95;;;0.70;79.00;;;;;;5188162;28;20587;-64
2021/04/13 05:15:32;;;;;;;12.90;8.98;;;0.70;78.70;;;;;;5195560;28;20448;-64
2021/04/13 05:18:04;;;;;;;10.48;8.43;;;0.80;78.70;;;;;;5187237;28;20104;-65
2021/04/13 05:20:36;;;;;;;10.98;8.73;;;0.80;78.70;;;;;;5186685;28;20096;-62
2021/04/13 05:23:07;;;;;;;12.52;8.95;;;0.90;78.50;;;;;;5188938;28;20434;-64
2021/04/13 05:25:39;;;;;;;11.43;8.55;;;1.00;78.30;;;;;;5191440;28;20404;-62
2021/04/13 05:28:12;;;;;;;11.25;8.98;;;1.00;78.30;;;;;;5190012;28;20046;-63
2021/04/13 05:30:43;;;;;;;11.07;8.60;;;0.90;78.60;;;;;;5182068;28;20058;-62
2021/04/13 05:33:16;;;;;;;12.15;9.23;;;1.00;78.50;;;;;;5177001;28;20060;-62
2021/04/13 05:35:48;;;;;;;11.98;8.73;;;1.10;78.30;;;;;;5169036;28;20046;-65
2021/04/13 05:38:26;;;;;;;12.50;8.90;;;1.20;77.90;;;;;;5168203;28;20068;-65
2021/04/13 05:41:01;;;;;;;10.98;9.05;;;1.30;77.90;;;;;;5175489;28;20081;-64
2021/04/13 05:43:32;;;;;;;12.60;8.80;;;1.30;77.90;;;;;;5185949;28;20042;-65
2021/04/13 05:46:05;;;;;;;10.02;7.38;;;1.40;78.00;;;;;;5188421;28;20054;-65
2021/04/13 05:48:37;;;;;;;10.50;8.07;;;1.50;77.10;;;;;;5194283;28;20046;-63
2021/04/13 05:51:08;;;;;;;15.15;9.18;;;1.50;76.90;;;;;;5188939;28;20053;-64
2021/04/13 05:53:40;;;;;;;11.80;9.07;;;1.60;76.80;;;;;;5193176;28;20046;-62
2021/04/13 05:56:15;;;;;;;11.38;9.10;;;1.50;76.90;;;;;;5186992;28;20073;-62
2021/04/13 05:58:52;;;;;;;11.75;8.88;;;1.60;77.00;;;;;;5189682;28;20041;-64
2021/04/13 06:01:28;;;;;;;10.95;9.13;;;1.70;76.80;;;;;;5194833;28;20103;-63
2021/04/13 06:04:01;;;;;;;11.98;8.93;;;1.80;76.50;;;;;;5185649;28;20045;-62
2021/04/13 06:06:33;;;;;;;13.05;8.40;;;1.80;76.20;;;;;;5192660;28;20037;-65
2021/04/13 06:09:05;;;;;;;13.80;8.40;;;1.90;76.30;;;;;;5188986;28;20050;-65
2021/04/13 06:11:36;;;;;;;11.20;8.27;;;2.00;76.10;;;;;;5194281;28;20077;-63
2021/04/13 06:14:08;;;;;;;11.60;8.43;;;2.00;74.90;;;;;;5191519;28;20128;-63
2021/04/13 06:16:42;;;;;;;10.48;7.97;;;1.90;74.50;;;;;;5189650;28;20045;-67
2021/04/13 06:19:15;;;;;;;11.25;7.68;;;1.90;74.00;;;;;;5189782;28;20045;-63
2021/04/13 06:21:46;;;;;;;10.82;7.43;;;1.90;73.00;;;;;;5188898;28;20040;-65
2021/04/13 06:24:18;;;;;;;11.07;8.07;;;1.90;72.60;;;;;;5188890;28;20128;-66
2021/04/13 06:26:49;;;;;;;10.75;7.57;;;2.00;72.80;;;;;;5187922;28;20069;-66
2021/04/13 06:29:29;;;;;;;10.57;7.63;;;2.10;72.20;;;;;;5189102;28;20068;-62
2021/04/13 06:32:01;;;;;;;11.10;7.50;;;2.30;71.80;;;;;;5187151;28;20285;-65
2021/04/13 06:34:33;;;;;;;9.63;7.28;;;2.50;72.30;;;;;;5189475;28;20042;-66
2021/04/13 06:37:07;;;;;;;11.10;7.97;;;2.70;71.60;;;;;;5190158;28;20065;-65
2021/04/13 06:39:38;;;;;;;9.63;7.53;;;2.90;72.20;;;;;;5188714;28;20069;-62
2021/04/13 06:42:40;;;;;;;10.77;7.75;;;3.20;71.80;;;;;;5189760;28;20042;-63
2021/04/13 06:45:15;;;;;;;11.25;7.57;;;3.40;68.70;;;;;;5189303;28;20103;-62
2021/04/13 06:48:11;;;;;;;10.70;8.23;;;3.60;68.00;;;;;;5187039;28;20053;-63
2021/04/13 06:51:06;;;;;;;10.48;7.85;;;3.80;69.30;;;;;;5190472;28;20114;-63
2021/04/13 06:53:56;;;;;;;9.75;7.90;;;4.00;67.30;;;;;;5190751;28;20121;-63
2021/04/13 06:56:43;;;;;;;12.07;8.07;;;4.20;68.00;;;;;;5188831;28;20415;-63
2021/04/13 06:59:48;;;;;;;11.63;8.45;;;4.40;66.60;;;;;;5188439;28;20045;-62
2021/04/13 07:02:36;;;;;;;10.05;8.10;;;4.60;68.60;;;;;;5183532;28;20042;-65
2021/04/13 07:05:22;;;;;;;10.43;8.10;;;4.80;65.90;;;;;;5185296;28;20042;-62
2021/04/13 07:07:59;;;;;;;10.85;7.70;;;4.80;64.50;;;;;;5186763;28;20500;-62
2021/04/13 07:10:37;;;;;;;14.00;8.85;;;4.90;65.70;;;;;;5181023;28;20050;-62
2021/04/13 07:13:38;;;;;;;12.63;8.65;;;5.00;65.90;;;;;;5188911;28;20524;-63
2021/04/13 07:16:22;;;;;;;20.23;9.80;;;5.20;66.50;;;;;;5178999;28;20050;-62
2021/04/13 07:19:10;;;;;;;13.10;8.93;;;5.30;66.30;;;;;;5187076;28;20087;-62
2021/04/13 07:22:03;;;;;;;11.68;8.68;;;5.30;65.70;;;;;;5187817;28;20049;-62
2021/04/13 07:24:51;;;;;;;12.20;8.60;;;5.20;65.80;;;;;;5188216;28;20073;-63
2021/04/13 07:27:32;;;;;;;13.35;8.63;;;5.20;65.80;;;;;;5187062;28;20046;-63
2021/04/13 07:30:18;;;;;;;12.25;9.40;;;5.10;65.50;;;;;;5183104;28;20069;-65
2021/04/13 07:32:58;;;;;;;12.25;8.73;;;5.10;65.20;;;;;;5167619;28;20054;-63
2021/04/13 07:35:33;;;;;;;10.80;8.20;;;5.00;65.50;;;;;;5165261;28;20041;-62
2021/04/13 07:38:14;;;;;;;10.57;8.18;;;4.90;64.90;;;;;;5170016;28;20082;-64
2021/04/13 07:40:49;;;;;;;10.52;8.32;;;4.80;65.60;;;;;;5174337;28;20125;-62
2021/04/13 07:43:37;;;;;;;10.85;7.90;;;4.80;63.70;;;;;;5196785;28;20081;-62
2021/04/13 07:46:42;;;;;;;11.50;8.82;;;4.50;65.30;;;;;;5192200;28;20082;-63
2021/04/13 07:49:25;;;;;;;10.40;8.02;;;4.50;65.50;;;;;;5192815;28;20050;-62
2021/04/13 07:52:08;;;;;;;11.75;8.85;;;4.40;63.60;;;;;;5189786;28;20041;-63
2021/04/13 07:54:53;;;;;;;12.77;8.18;;;4.30;64.00;;;;;;5191581;28;20518;-63
2021/04/13 07:57:39;;;;;;;10.43;7.47;;;4.30;64.40;;;;;;5187870;28;20112;-64
2021/04/13 08:00:14;;;;;;;13.15;8.80;;;4.20;65.30;;;;;;5190502;28;20050;-63
2021/04/13 08:02:51;;;;;;;10.82;8.88;;;4.20;64.90;;;;;;5191568;28;20555;-62
2021/04/13 08:05:42;;;;;;;11.95;8.55;;;4.10;65.00;;;;;;5192315;28;20053;-62
2021/04/13 08:08:17;;;;;;;12.32;8.25;;;4.20;65.20;;;;;;5195203;28;20119;-62
2021/04/13 08:10:48;;;;;;;11.10;8.45;;;4.20;64.50;;;;;;5189556;28;20041;-64
2021/04/13 08:13:31;;;;;;;11.40;8.88;;;4.10;64.70;;;;;;5189259;28;20053;-65
2021/04/13 08:16:03;;;;;;;11.05;8.68;;;4.10;64.70;;;;;;5192785;28;20049;-64
2021/04/13 08:18:37;;;;;;;11.90;9.00;;;4.20;64.60;;;;;;5196443;28;20049;-62
2021/04/13 08:21:25;;;;;;;12.77;8.85;;;4.20;64.70;;;;;;5189208;28;20512;-62
2021/04/13 08:23:57;;;;;;;12.35;8.70;;;4.20;63.80;;;;;;5189833;28;20056;-62
2021/04/13 08:26:31;;;;;;;12.10;9.38;;;4.30;63.30;;;;;;5183891;28;20073;-62
2021/04/13 08:29:03;;;;;;;12.52;9.82;;;4.60;64.60;;;;;;5188473;28;20041;-64
2021/04/13 08:34:59;;;;;;;10.70;8.27;;;5.40;63.20;;;;;;5191967;28;20057;-64
2021/04/13 08:37:52;;;;;;;11.93;8.68;;;5.70;62.50;;;;;;5187282;28;20127;-62
2021/04/13 08:40:44;;;;;;;10.13;8.18;;;6.00;61.00;;;;;;5184793;28;20053;-63
2021/04/13 08:43:39;;;;;;;10.48;8.25;;;5.90;60.00;;;;;;5192527;28;20507;-63
2021/04/13 08:46:20;;;;;;;10.68;8.10;;;5.90;59.70;;;;;;5198533;28;20601;-62
2021/04/13 08:49:26;;;;;;;10.68;8.63;;;5.70;58.40;;;;;;5190440;28;20044;-63
2021/04/13 08:52:15;;;;;;;11.10;7.95;;;5.40;59.60;;;;;;5190317;28;20120;-62
2021/04/13 08:54:49;;;;;;;8.07;6.03;;;5.80;62.10;;;;;;5188772;28;20042;-65
2021/04/13 08:57:35;;;;;;;10.02;6.90;;;6.10;56.20;;;;;;5187948;28;20045;-65
2021/04/13 09:00:30;;;;;;;8.05;6.03;;;6.40;54.50;;;;;;5187562;28;20053;-62
2021/04/13 09:03:06;;;;;;;7.43;5.28;;;6.60;55.60;;;;;;5185121;28;20057;-66
2021/04/13 09:05:39;;;;;;;9.35;6.35;;;6.50;53.70;;;;;;5189447;28;20410;-62
2021/04/13 09:08:32;;;;;;;9.82;6.75;;;6.40;55.20;;;;;;5192498;28;20052;-64
2021/04/13 09:11:28;;;;;;;7.70;6.13;;;6.20;54.20;;;;;;5189965;28;20077;-66
2021/04/13 09:14:40;;;;;;;7.60;5.57;;;6.10;54.60;;;;;;5188360;28;20100;-62
2021/04/13 09:17:17;;;;;;;7.95;6.00;;;6.00;53.20;;;;;;5179353;28;20407;-62
2021/04/13 09:20:11;;;;;;;7.47;5.57;;;6.00;53.50;;;;;;5187719;28;20038;-65
2021/04/13 09:23:09;;;;;;;8.20;6.10;;;6.00;54.90;;;;;;5188263;28;20096;-62
2021/04/13 09:26:09;;;;;;;7.00;5.20;;;6.20;55.30;;;;;;5190918;28;20060;-62
2021/04/13 09:28:52;;;;;;;8.05;6.10;;;6.30;52.20;;;;;;5182737;28;20045;-62
2021/04/13 09:31:52;;;;;;;9.60;6.35;;;6.50;53.80;;;;;;5187698;28;20076;-62
2021/04/13 09:34:29;;;;;;;8.47;6.60;;;7.00;52.20;;;;;;5190970;28;20065;-63
2021/04/13 09:37:19;;;;;;;8.25;5.80;;;7.30;52.60;;;;;;5191208;28;20057;-64
2021/04/13 09:40:24;;;;;;;7.53;5.50;;;7.30;50.40;;;;;;5188361;28;20053;-61
2021/04/13 09:43:13;;;;;;;7.78;5.20;;;7.40;48.40;;;;;;5162036;28;20054;-63
2021/04/13 09:46:21;;;;;;;8.75;5.43;;;7.70;49.10;;;;;;5174228;28;20500;-63
2021/04/13 09:49:11;;;;;;;8.00;6.22;;;7.80;49.00;;;;;;5169509;28;20678;-62
2021/04/13 09:51:53;;;;;;;7.63;6.40;;;7.60;48.80;;;;;;5164664;28;20061;-64
2021/04/13 09:54:30;;;;;;;7.40;6.00;;;7.30;50.50;;;;;;5171010;28;20050;-62
2021/04/13 09:57:11;;;;;;;7.28;5.43;;;6.90;53.90;;;;;;5185007;28;20512;-65
2021/04/13 09:59:49;;;;;;;;;;;7.00;52.90;;;;;;5186893;28;20049;-62
2021/04/13 10:03:07;;;;;;;7.70;6.05;;;7.20;50.50;;;;;;5187872;28;19933;-63
2021/04/13 10:05:44;;;;;;;8.40;6.60;;;6.80;49.30;;;;;;5188920;28;20048;-66
2021/04/13 10:08:15;;;;;;;7.13;5.88;;;7.00;52.80;;;;;;5191835;28;20152;-63
2021/04/13 10:11:08;;;;;;;8.23;6.38;;;7.70;49.60;;;;;;5191065;28;20466;-64
2021/04/13 10:14:00;;;;;;;7.43;6.43;;;8.10;51.40;;;;;;5191333;28;20522;-62
2021/04/13 10:17:10;;;;;;;8.43;6.30;;;8.60;48.10;;;;;;5178620;28;20042;-65
2021/04/13 10:19:53;;;;;;;8.70;7.20;;;8.90;46.10;;;;;;5163343;28;20081;-62
2021/04/13 10:22:51;;;;;;;9.52;7.25;;;8.80;48.30;;;;;;5168453;28;20839;-62
2021/04/13 10:25:56;;;;;;;8.70;7.07;;;9.10;48.40;;;;;;5164964;28;20475;-63
2021/04/13 10:28:55;;;;;;;8.02;6.78;;;9.40;43.90;;;;;;5185797;28;20138;-62
2021/04/13 10:31:53;;;;;;;8.63;6.82;;;9.10;46.00;;;;;;5187898;28;20081;-62
2021/04/13 10:34:51;;;;;;;9.32;6.75;;;9.20;46.20;;;;;;5188807;28;20104;-62
2021/04/13 10:37:40;;;;;;;8.05;7.03;;;9.20;44.80;;;;;;5191105;28;20782;-62
2021/04/13 10:40:27;;;;;;;8.80;7.50;;;9.10;44.30;;;;;;5189843;28;20739;-62
2021/04/13 10:43:12;;;;;;;10.02;7.80;;;8.80;45.80;;;;;;5189671;28;20456;-62
2021/04/13 10:45:52;;;;;;;8.05;6.90;;;8.40;47.40;;;;;;5186291;28;20510;-63
2021/04/13 10:48:44;;;;;;;;;;;8.40;49.30;;;;;;5191461;28;20046;-62
2021/04/13 10:51:49;;;;;;;9.05;7.07;;;8.10;50.00;;;;;;5187064;28;20545;-62
2021/04/13 10:54:41;;;;;;;9.10;7.13;;;7.60;50.30;;;;;;5206770;28;20119;-63
2021/04/13 10:57:27;;;;;;;8.95;6.50;;;6.60;53.00;;;;;;5183844;28;20041;-62
2021/04/13 11:00:23;;;;;;;8.15;6.78;;;6.50;54.40;;;;;;5187295;28;20041;-61
2021/04/13 11:03:32;;;;;;;8.07;6.50;;;6.50;51.10;;;;;;5179152;28;20050;-64
2021/04/13 11:06:39;;;;;;;9.18;7.20;;;6.30;52.50;;;;;;5173247;28;20420;-63
2021/04/13 11:09:50;;;;;;;8.27;6.97;;;6.60;52.20;;;;;;5167133;28;20038;-62
2021/04/13 11:12:42;;;;;;;10.05;8.45;;;6.90;53.00;;;;;;5184817;28;20165;-62
2021/04/13 11:15:55;;;;;;;9.25;7.85;;;7.10;51.60;;;;;;5191888;28;20511;-62
2021/04/13 11:18:32;;;;;;;27.90;9.93;;;7.20;51.20;;;;;;5186838;28;20095;-63
2021/04/13 11:21:13;;;;;;;6.95;5.32;;;7.00;53.10;;;;;;5185989;28;20073;-65
2021/04/13 11:24:13;;;;;;;7.38;6.32;;;6.50;55.00;;;;;;5189862;28;20415;-62
2021/04/13 11:27:36;;;;;;;7.30;6.18;;;6.20;60.50;;;;;;5183749;28;20045;-62
2021/04/13 11:30:19;;;;;;;7.95;5.68;;;6.50;61.00;;;;;;5188182;28;20046;-64
2021/04/13 11:33:19;;;;;;;7.07;5.45;;;6.60;60.10;;;;;;5186933;28;20046;-62
2021/04/13 11:36:15;;;;;;;6.30;4.95;;;6.60;57.70;;;;;;5195842;28;20917;-63
2021/04/13 11:38:52;;;;;;;6.18;4.68;;;6.50;54.70;;;;;;5190091;28;20041;-65
2021/04/13 11:41:23;;;;;;;10.43;7.10;;;6.90;55.60;;;;;;5185142;28;20042;-62
2021/04/13 11:44:10;;;;;;;6.65;4.90;;;7.20;56.80;;;;;;5182009;28;20041;-65
2021/04/13 11:46:47;;;;;;;7.75;5.53;;;7.30;55.00;;;;;;5188575;28;20470;-63
2021/04/13 11:49:42;;;;;;;7.45;5.82;;;7.00;53.20;;;;;;5187488;28;20447;-65
2021/04/13 11:52:35;;;;;;;7.50;5.55;;;7.20;54.40;;;;;;5188174;28;20104;-62
2021/04/13 11:55:27;;;;;;;7.43;6.28;;;7.50;51.50;;;;;;5186991;28;20053;-62
2021/04/13 11:58:09;;;;;;;7.57;6.35;;;7.80;52.70;;;;;;5178044;28;20591;-62
2021/04/13 12:00:42;;;;;;;6.68;5.38;;;7.90;50.00;;;;;;5186602;28;20049;-62
2021/04/13 12:03:21;;;;;;;7.03;5.72;;;7.70;50.00;;;;;;5188062;28;20049;-62
2021/04/13 12:05:58;;;;;;;7.88;6.03;;;7.60;51.60;;;;;;5188204;28;20484;-62
2021/04/13 12:08:36;;;;;;;8.75;6.20;;;7.60;51.10;;;;;;5188874;28;20108;-63
2021/04/13 12:11:17;;;;;;;9.68;7.60;;;7.70;50.60;;;;;;5189042;28;20543;-61
2021/04/13 12:13:50;;;;;;;10.35;7.63;;;7.90;50.60;;;;;;5187619;28;20073;-65
2021/04/13 12:16:46;;;;;;;9.18;7.05;;;7.90;49.70;;;;;;5184466;28;20046;-64
2021/04/13 12:19:18;;;;;;;8.07;6.28;;;7.80;46.30;;;;;;5188210;28;20553;-64
2021/04/13 12:21:58;;;;;;;9.50;6.50;;;7.60;48.80;;;;;;5189581;28;20083;-63
2021/04/13 12:24:33;;;;;;;;;;;7.50;47.70;;;;;;5192062;28;20116;-62
2021/04/13 12:27:26;;;;;;;7.90;6.72;;;7.20;48.20;;;;;;5189785;28;20402;-65
2021/04/13 12:30:22;;;;;;;8.18;6.53;;;7.60;47.10;;;;;;5186939;28;20050;-62
2021/04/13 12:32:54;;;;;;;8.82;6.70;;;7.90;47.10;;;;;;5193368;28;20127;-62
2021/04/13 12:35:48;;;;;;;7.65;6.20;;;8.40;47.20;;;;;;5187912;28;20052;-63
2021/04/13 12:38:41;;;;;;;8.18;6.93;;;8.20;44.30;;;;;;5188090;28;20036;-63
2021/04/13 12:41:25;;;;;;;8.65;6.88;;;8.40;46.30;;;;;;5191038;28;20065;-62
2021/04/13 12:44:18;;;;;;;9.27;8.02;;;8.50;48.20;;;;;;5191789;28;20040;-62
2021/04/13 12:46:52;;;;;;;9.32;7.53;;;8.30;50.60;;;;;;5190267;28;20062;-63
2021/04/13 12:49:33;;;;;;;8.68;7.32;;;7.80;50.90;;;;;;5186471;28;20045;-62
2021/04/13 12:52:14;;;;;;;9.52;8.10;;;7.80;51.20;;;;;;5190527;28;20058;-65
2021/04/13 12:54:46;;;;;;;9.00;7.53;;;8.30;50.40;;;;;;5189903;28;20119;-62
2021/04/13 12:57:24;;;;;;;8.45;6.90;;;8.90;47.60;;;;;;5189719;28;20041;-63
2021/04/13 13:00:08;;;;;;;8.65;6.65;;;9.00;48.70;;;;;;5190358;28;20527;-61
2021/04/13 13:02:47;;;;;;;7.45;5.78;;;8.60;49.40;;;;;;5191446;28;20527;-64
2021/04/13 13:05:28;;;;;;;7.13;5.70;;;8.00;47.90;;;;;;5190454;28;20045;-65
2021/04/13 13:08:27;;;;;;;8.95;6.28;;;7.40;50.30;;;;;;5188487;28;20407;-61
2021/04/13 13:11:10;;;;;;;7.93;6.55;;;7.00;52.50;;;;;;5189105;28;20040;-61
2021/04/13 13:13:49;;;;;;;7.93;6.38;;;6.60;55.20;;;;;;5190223;28;20049;-62
2021/04/13 13:16:42;;;;;;;8.00;6.07;;;6.60;56.60;;;;;;5188107;28;20650;-62
2021/04/13 13:19:40;;;;;;;8.05;6.28;;;6.40;57.80;;;;;;5190954;28;20137;-61
2021/04/13 13:22:16;;;;;;;7.95;5.80;;;6.20;57.70;;;;;;5188028;28;20099;-62
2021/04/13 13:24:52;;;;;;;7.20;5.75;;;6.10;58.90;;;;;;5202932;28;20055;-64
2021/04/13 13:27:31;;;;;;;7.35;5.65;;;5.80;57.30;;;;;;5189541;28;20038;-61
2021/04/13 13:30:10;;;;;;;7.05;5.70;;;5.70;55.50;;;;;;5189811;28;20053;-63
2021/04/13 13:32:42;;;;;;;7.38;6.00;;;5.80;56.40;;;;;;5172248;28;20051;-63
2021/04/13 13:35:17;;;;;;;7.63;5.55;;;5.90;54.90;;;;;;5166765;28;20121;-64
2021/04/13 13:37:56;;;;;;;6.78;5.57;;;6.00;54.70;;;;;;5166527;28;20050;-65
2021/04/13 13:40:34;;;;;;;7.97;5.50;;;6.10;54.40;;;;;;5173873;28;20095;-64
2021/04/13 13:43:16;;;;;;;7.88;5.55;;;6.10;53.80;;;;;;5190759;28;20559;-63
2021/04/13 13:45:49;;;;;;;7.78;5.80;;;6.10;52.70;;;;;;5185093;28;20066;-65
2021/04/13 13:48:26;;;;;;;8.52;5.50;;;6.10;53.40;;;;;;5189006;28;20058;-61
2021/04/13 13:51:06;;;;;;;7.13;5.90;;;6.20;53.40;;;;;;5186986;28;20061;-62
2021/04/13 13:53:53;;;;;;;7.03;5.63;;;6.10;53.80;;;;;;5193691;28;20123;-65
2021/04/13 13:57:33;;;;;;;9.50;6.95;;;6.30;54.50;;;;;;5188990;28;20139;-62
2021/04/13 14:00:50;;;;;;;8.73;6.25;;;6.50;52.30;;;;;;5187782;28;20033;-64
2021/04/13 14:03:32;;;;;;;6.95;5.80;;;6.60;52.50;;;;;;5190295;28;20049;-62
2021/04/13 14:06:10;;;;;;;8.75;7.13;;;6.90;54.10;;;;;;5186664;28;20108;-65
2021/04/13 14:09:06;;;;;;;8.52;6.15;;;7.50;54.40;;;;;;5187539;28;20045;-62
2021/04/13 14:11:38;;;;;;;8.05;7.05;;;8.00;52.70;;;;;;5184682;28;20073;-66
2021/04/13 14:14:11;;;;;;;8.45;6.65;;;8.40;51.10;;;;;;5186618;28;20129;-62
2021/04/13 14:16:45;;;;;;;8.55;6.85;;;8.90;51.00;;;;;;5188739;28;20507;-62